createdAt,value
2023-04-20T00:02:26.313Z,98706.72
2023-04-20T00:04:54.613Z,98708.63
2023-04-20T00:07:24.772Z,98706.28
2023-04-20T00:09:54.043Z,98696.34
2023-04-20T00:12:21.939Z,98699.00
2023-04-20T00:14:49.991Z,98693.34
2023-04-20T00:17:18.022Z,98684.91
2023-04-20T00:19:46.340Z,98688.56
2023-04-20T00:22:14.439Z,98689.28
2023-04-20T00:24:45.022Z,98680.34
2023-04-20T00:27:14.239Z,98685.06
2023-04-20T00:29:42.013Z,98675.50
2023-04-20T00:32:10.033Z,98675.03
2023-04-20T00:34:37.961Z,98675.03
2023-04-20T00:37:06.227Z,98671.47
2023-04-20T00:39:34.317Z,98661.78
2023-04-20T00:42:08.077Z,98662.44
2023-04-20T00:44:37.375Z,98655.56
2023-04-20T00:47:05.327Z,98651.91
2023-04-20T00:49:34.630Z,98644.28
2023-04-20T00:52:02.631Z,98650.31
2023-04-20T00:54:33.602Z,98647.19
2023-04-20T00:57:02.490Z,98631.84
2023-04-20T00:59:30.435Z,98641.50
2023-04-20T01:02:00.015Z,98636.81
2023-04-20T01:04:28.309Z,98632.28
2023-04-20T01:06:57.075Z,98627.72
2023-04-20T01:09:27.641Z,98621.66
2023-04-20T01:11:55.761Z,98615.50
2023-04-20T01:14:23.703Z,98620.28
2023-04-20T01:16:52.060Z,98614.47
2023-04-20T01:19:21.611Z,98612.84
2023-04-20T01:21:49.506Z,98596.63
2023-04-20T01:24:18.712Z,98596.84
2023-04-20T01:26:46.653Z,98597.97
2023-04-20T01:29:14.688Z,98591.66
2023-04-20T01:31:43.995Z,98588.09
2023-04-20T01:34:12.356Z,98583.63
2023-04-20T01:36:40.333Z,98577.72
2023-04-20T01:39:09.178Z,98575.47
2023-04-20T01:41:38.472Z,98574.38
2023-04-20T01:44:06.754Z,98573.22
2023-04-20T01:46:37.773Z,98564.34
2023-04-20T01:49:05.995Z,98565.69
2023-04-20T01:51:34.062Z,98560.50
2023-04-20T01:54:02.500Z,98557.22
2023-04-20T01:56:30.710Z,98555.72
2023-04-20T01:59:02.738Z,98555.31
2023-04-20T02:01:30.660Z,98547.78
2023-04-20T02:03:59.298Z,98543.22
2023-04-20T02:06:27.382Z,98539.59
2023-04-20T02:08:55.484Z,98544.09
2023-04-20T02:11:23.500Z,98542.69
2023-04-20T02:13:51.619Z,98541.44
2023-04-20T02:16:21.855Z,98540.84
2023-04-20T02:18:49.837Z,98548.19
2023-04-20T02:21:17.913Z,98544.56
2023-04-20T02:23:45.988Z,98540.47
2023-04-20T02:26:13.920Z,98537.69
2023-04-20T02:28:41.920Z,98534.00
2023-04-20T02:31:12.192Z,98533.63
2023-04-20T02:33:41.735Z,98525.09
2023-04-20T02:36:10.429Z,98516.66
2023-04-20T02:38:40.789Z,98521.25
2023-04-20T02:41:08.842Z,98523.94
2023-04-20T02:43:36.950Z,98520.22
2023-04-20T02:46:06.074Z,98521.50
2023-04-20T02:48:34.033Z,98516.41
2023-04-20T02:51:03.752Z,98511.78
2023-04-20T02:53:40.733Z,98511.25
2023-04-20T02:56:34.964Z,98499.91
2023-04-20T02:59:06.823Z,98505.16
2023-04-20T03:01:43.031Z,98506.16
2023-04-20T03:04:16.423Z,98506.53
2023-04-20T03:06:54.171Z,98505.22
2023-04-20T03:09:28.257Z,98506.78
2023-04-20T03:11:56.332Z,98496.91
2023-04-20T03:14:59.465Z,98503.44
2023-04-20T03:17:43.464Z,98500.84
2023-04-20T03:20:13.478Z,98495.09
2023-04-20T03:22:42.854Z,98500.16
2023-04-20T03:25:11.900Z,98502.47
2023-04-20T03:27:58.414Z,98485.06
2023-04-20T03:30:27.033Z,98495.16
2023-04-20T03:33:04.352Z,98496.72
2023-04-20T03:35:32.302Z,98491.72
2023-04-20T03:38:02.490Z,98493.06
2023-04-20T03:40:30.403Z,98492.56
2023-04-20T03:42:58.395Z,98487.84
2023-04-20T03:45:26.443Z,98492.97
2023-04-20T03:47:54.496Z,98490.50
2023-04-20T03:50:23.347Z,98480.53
2023-04-20T03:52:51.292Z,98483.66
2023-04-20T03:55:21.094Z,98483.13
2023-04-20T03:57:55.916Z,98483.28
2023-04-20T04:00:25.730Z,98484.53
2023-04-20T04:03:03.792Z,98480.47
2023-04-20T04:05:34.711Z,98483.34
2023-04-20T04:08:04.346Z,98481.16
2023-04-20T04:10:35.012Z,98484.84
2023-04-20T04:13:03.321Z,98485.72
2023-04-20T04:15:32.617Z,98480.22
2023-04-20T04:18:05.721Z,98481.47
2023-04-20T04:20:35.458Z,98483.25
2023-04-20T04:23:03.728Z,98482.69
2023-04-20T04:25:40.711Z,98481.34
2023-04-20T04:28:10.680Z,98480.50
2023-04-20T04:30:44.507Z,98474.69
2023-04-20T04:33:14.808Z,98477.31
2023-04-20T04:35:45.853Z,98489.44
2023-04-20T04:38:14.945Z,98479.22
2023-04-20T04:40:47.744Z,98483.59
2023-04-20T04:43:16.109Z,98480.72
2023-04-20T04:45:51.934Z,98484.75
2023-04-20T04:48:20.635Z,98487.66
2023-04-20T04:50:48.542Z,98478.03
2023-04-20T04:53:16.577Z,98471.41
2023-04-20T04:55:46.934Z,98478.78
2023-04-20T04:58:16.537Z,98474.47
2023-04-20T05:00:44.529Z,98472.34
2023-04-20T05:03:13.950Z,98476.25
2023-04-20T05:05:41.984Z,98483.19
2023-04-20T05:08:10.009Z,98475.66
2023-04-20T05:10:37.897Z,98483.19
2023-04-20T05:13:05.942Z,98483.13
2023-04-20T05:15:35.357Z,98479.78
2023-04-20T05:18:03.404Z,98484.03
2023-04-20T05:20:31.459Z,98485.03
2023-04-20T05:22:59.493Z,98487.22
2023-04-20T05:25:27.597Z,98484.16
2023-04-20T05:27:57.904Z,98487.06
2023-04-20T05:30:27.106Z,98490.66
2023-04-20T05:32:56.440Z,98496.28
2023-04-20T05:35:24.407Z,98491.63
2023-04-20T05:37:52.838Z,98483.78
2023-04-20T05:40:20.720Z,98491.66
2023-04-20T05:42:48.547Z,98490.00
2023-04-20T05:45:16.615Z,98491.22
2023-04-20T05:47:54.002Z,98485.16
2023-04-20T05:50:24.302Z,98487.78
2023-04-20T05:52:52.298Z,98481.59
2023-04-20T05:55:22.642Z,98477.84
2023-04-20T05:57:52.412Z,98476.41
2023-04-20T06:00:23.124Z,98471.59
2023-04-20T06:02:54.481Z,98478.63
2023-04-20T06:05:23.982Z,98478.44
2023-04-20T06:07:51.923Z,98481.56
2023-04-20T06:10:19.857Z,98479.78
2023-04-20T06:12:48.176Z,98481.53
2023-04-20T06:15:16.510Z,98469.75
2023-04-20T06:17:48.478Z,98473.88
2023-04-20T06:20:17.457Z,98483.66
2023-04-20T06:22:47.086Z,98477.00
2023-04-20T06:25:16.117Z,98472.34
2023-04-20T06:27:44.070Z,98476.47
2023-04-20T06:30:13.445Z,98480.00
2023-04-20T06:32:41.603Z,98469.66
2023-04-20T06:35:09.986Z,98469.78
2023-04-20T06:37:40.716Z,98464.78
2023-04-20T06:40:10.471Z,98462.69
2023-04-20T06:42:38.495Z,98463.38
2023-04-20T06:45:07.589Z,98458.41
2023-04-20T06:47:36.104Z,98466.91
2023-04-20T06:50:09.647Z,98456.00
2023-04-20T06:52:38.651Z,98463.47
2023-04-20T06:55:07.134Z,98459.97
2023-04-20T06:57:38.387Z,98465.91
2023-04-20T07:00:08.943Z,98464.31
2023-04-20T07:02:43.914Z,98451.47
2023-04-20T07:05:12.387Z,98457.38
2023-04-20T07:07:43.282Z,98456.00
2023-04-20T07:10:14.079Z,98443.78
2023-04-20T07:12:44.467Z,98446.28
2023-04-20T07:15:12.738Z,98447.97
2023-04-20T07:17:40.868Z,98453.41
2023-04-20T07:20:10.061Z,98443.66
2023-04-20T07:22:39.548Z,98447.22
2023-04-20T07:25:09.312Z,98440.34
2023-04-20T07:27:38.661Z,98447.22
2023-04-20T07:30:10.642Z,98441.81
2023-04-20T07:32:40.836Z,98438.47
2023-04-20T07:35:10.075Z,98442.00
2023-04-20T07:37:38.057Z,98438.47
2023-04-20T07:40:07.344Z,98436.66
2023-04-20T07:42:37.145Z,98436.03
2023-04-20T07:45:05.863Z,98437.56
2023-04-20T07:47:35.954Z,98434.09
2023-04-20T07:50:04.208Z,98437.88
2023-04-20T07:52:32.413Z,98438.41
2023-04-20T07:55:00.713Z,98434.28
2023-04-20T07:57:30.170Z,98436.72
2023-04-20T07:59:58.445Z,98438.13
2023-04-20T08:02:26.448Z,98446.53
2023-04-20T08:04:56.047Z,98439.00
2023-04-20T08:07:24.140Z,98442.03
2023-04-20T08:09:52.062Z,98430.94
2023-04-20T08:12:20.032Z,98432.38
2023-04-20T08:14:47.886Z,98426.16
2023-04-20T08:17:18.136Z,98430.06
2023-04-20T08:19:46.353Z,98433.16
2023-04-20T08:22:15.778Z,98423.31
2023-04-20T08:24:43.823Z,98425.38
2023-04-20T08:27:11.746Z,98418.69
2023-04-20T08:29:40.250Z,98428.78
2023-04-20T08:32:09.719Z,98422.69
2023-04-20T08:34:38.018Z,98423.97
2023-04-20T08:37:06.296Z,98414.66
2023-04-20T08:39:36.543Z,98416.91
2023-04-20T08:42:07.347Z,98423.31
2023-04-20T08:44:35.325Z,98419.25
2023-04-20T08:47:04.454Z,98416.59
2023-04-20T08:49:33.031Z,98420.66
2023-04-20T08:52:01.157Z,98420.47
2023-04-20T08:54:29.162Z,98422.22
2023-04-20T08:56:59.798Z,98422.41
2023-04-20T08:59:30.835Z,98415.88
2023-04-20T09:02:09.449Z,98418.88
2023-04-20T09:04:37.706Z,98420.06
2023-04-20T09:07:06.034Z,98418.00
2023-04-20T09:09:34.133Z,98414.81
2023-04-20T09:12:04.986Z,98412.47
2023-04-20T09:14:43.978Z,98414.41
2023-04-20T09:17:14.585Z,98417.69
2023-04-20T09:19:45.608Z,98416.50
2023-04-20T09:22:13.858Z,98408.38
2023-04-20T09:24:42.698Z,98414.66
2023-04-20T09:27:19.087Z,98409.22
2023-04-20T09:29:58.493Z,98407.44
2023-04-20T09:32:29.317Z,98407.41
2023-04-20T09:34:57.736Z,98404.41
2023-04-20T09:37:26.572Z,98402.63
2023-04-20T09:40:01.187Z,98398.19
2023-04-20T09:42:33.851Z,98394.84
2023-04-20T09:45:03.729Z,98391.31
2023-04-20T09:47:32.180Z,98393.41
2023-04-20T09:50:14.127Z,98394.47
2023-04-20T09:52:50.960Z,98396.41
2023-04-20T09:55:21.189Z,98388.84
2023-04-20T09:57:52.862Z,98397.63
2023-04-20T10:00:22.504Z,98392.34
2023-04-20T10:02:50.652Z,98394.84
2023-04-20T10:05:19.141Z,98394.50
2023-04-20T10:07:47.187Z,98387.03
2023-04-20T10:10:17.051Z,98388.72
2023-04-20T10:12:49.576Z,98393.28
2023-04-20T10:15:21.818Z,98388.00
2023-04-20T10:17:50.277Z,98389.81
2023-04-20T10:20:23.150Z,98379.59
2023-04-20T10:22:52.424Z,98378.63
2023-04-20T10:25:22.239Z,98369.03
2023-04-20T10:27:58.192Z,98366.69
2023-04-20T10:30:28.923Z,98373.06
2023-04-20T10:33:05.302Z,98372.63
2023-04-20T10:35:45.785Z,98373.22
2023-04-20T10:38:14.240Z,98372.38
2023-04-20T10:40:42.530Z,98364.53
2023-04-20T10:43:21.338Z,98363.47
2023-04-20T10:45:51.202Z,98364.72
2023-04-20T10:48:19.240Z,98359.72
2023-04-20T10:50:47.405Z,98363.94
2023-04-20T10:53:21.565Z,98352.91
2023-04-20T10:55:59.895Z,98339.91
2023-04-20T10:58:27.996Z,98336.78
2023-04-20T11:01:01.850Z,98329.41
2023-04-20T11:03:31.301Z,98320.31
2023-04-20T11:06:01.553Z,98317.31
2023-04-20T11:08:40.537Z,98322.00
2023-04-20T11:11:19.753Z,98319.91
2023-04-20T11:13:48.270Z,98315.41
2023-04-20T11:16:19.864Z,98315.19
2023-04-20T11:18:52.728Z,98317.38
2023-04-20T11:21:21.311Z,98313.16
2023-04-20T11:23:50.739Z,98308.22
2023-04-20T11:26:19.096Z,98302.94
2023-04-20T11:28:56.030Z,98307.22
2023-04-20T11:31:27.993Z,98296.31
2023-04-20T11:33:56.145Z,98296.72
2023-04-20T11:36:26.627Z,98303.44
2023-04-20T11:38:55.789Z,98302.19
2023-04-20T11:41:23.815Z,98308.97
2023-04-20T11:43:52.110Z,98308.25
2023-04-20T11:46:22.727Z,98310.38
2023-04-20T11:48:51.925Z,98311.03
2023-04-20T11:51:19.872Z,98316.19
2023-04-20T11:53:48.127Z,98308.91
2023-04-20T11:56:16.547Z,98313.31
2023-04-20T11:58:44.578Z,98317.00
2023-04-20T12:01:13.258Z,98322.28
2023-04-20T12:03:41.629Z,98323.25
2023-04-20T12:06:11.296Z,98313.03
2023-04-20T12:08:39.404Z,98315.66
2023-04-20T12:11:07.641Z,98314.25
2023-04-20T12:13:37.878Z,98310.03
2023-04-20T12:16:06.639Z,98304.16
2023-04-20T12:18:34.618Z,98310.22
2023-04-20T12:21:02.711Z,98301.97
2023-04-20T12:23:33.133Z,98294.44
2023-04-20T12:26:01.405Z,98299.41
2023-04-20T12:28:29.899Z,98296.00
2023-04-20T12:30:58.281Z,98298.66
2023-04-20T12:33:26.396Z,98288.47
2023-04-20T12:35:54.748Z,98296.25
2023-04-20T12:38:23.982Z,98296.56
2023-04-20T12:40:55.711Z,98300.34
2023-04-20T12:43:25.997Z,98295.28
2023-04-20T12:46:03.650Z,98295.06
2023-04-20T12:48:34.191Z,98286.97
2023-04-20T12:51:03.802Z,98287.34
2023-04-20T12:53:33.042Z,98287.59
2023-04-20T12:56:03.579Z,98275.81
2023-04-20T12:58:33.410Z,98275.31
2023-04-20T13:01:02.832Z,98262.09
2023-04-20T13:03:31.361Z,98260.41
2023-04-20T13:06:00.599Z,98256.84
2023-04-20T13:08:33.346Z,98259.41
2023-04-20T13:11:29.729Z,98261.78
2023-04-20T13:14:03.994Z,98272.94
2023-04-20T13:16:35.393Z,98280.03
2023-04-20T13:19:05.283Z,98285.66
2023-04-20T13:21:34.956Z,98289.41
2023-04-20T13:24:05.082Z,98286.38
2023-04-20T13:26:35.203Z,98279.78
2023-04-20T13:29:04.919Z,98274.88
2023-04-20T13:31:35.838Z,98282.31
2023-04-20T13:34:06.095Z,98286.34
2023-04-20T13:36:36.174Z,98274.03
2023-04-20T13:39:05.333Z,98275.34
2023-04-20T13:41:37.315Z,98268.47
2023-04-20T13:44:16.136Z,98262.88
2023-04-20T13:46:45.000Z,98264.09
2023-04-20T13:49:13.974Z,98275.47
2023-04-20T13:51:43.500Z,98282.97
2023-04-20T13:54:17.466Z,98273.25
2023-04-20T13:57:10.911Z,98272.03
2023-04-20T13:59:59.156Z,98261.69
2023-04-20T14:02:29.318Z,98260.97
2023-04-20T14:04:59.721Z,98258.28
2023-04-20T14:07:29.435Z,98257.50
2023-04-20T14:10:09.681Z,98254.41
2023-04-20T14:12:42.584Z,98249.09
2023-04-20T14:15:21.594Z,98245.69
2023-04-20T14:18:00.722Z,98251.97
2023-04-20T14:20:33.377Z,98248.84
2023-04-20T14:23:07.396Z,98255.03
2023-04-20T14:25:41.506Z,98256.16
2023-04-20T14:28:33.453Z,98254.38
2023-04-20T14:31:05.607Z,98258.09
2023-04-20T14:33:34.723Z,98255.03
2023-04-20T14:36:08.006Z,98263.63
2023-04-20T14:38:38.303Z,98270.38
2023-04-20T14:41:06.596Z,98272.72
2023-04-20T14:43:36.085Z,98274.97
2023-04-20T14:46:06.890Z,98269.97
2023-04-20T14:48:35.666Z,98270.59
2023-04-20T14:51:03.637Z,98274.94
2023-04-20T14:53:32.677Z,98275.59
2023-04-20T14:56:01.155Z,98276.13
2023-04-20T14:58:29.200Z,98279.88
2023-04-20T15:00:59.118Z,98284.19
2023-04-20T15:03:28.040Z,98288.59
2023-04-20T15:06:01.406Z,98292.31
2023-04-20T15:08:30.687Z,98297.66
2023-04-20T15:10:59.769Z,98297.34
2023-04-20T15:13:28.629Z,98294.59
2023-04-20T15:15:59.529Z,98283.94
2023-04-20T15:18:28.548Z,98288.53
2023-04-20T15:20:57.147Z,98289.16
2023-04-20T15:23:25.204Z,98282.19
2023-04-20T15:25:55.176Z,98285.91
2023-04-20T15:28:28.090Z,98289.84
2023-04-20T15:30:59.054Z,98287.13
2023-04-20T15:33:28.697Z,98289.56
2023-04-20T15:35:56.802Z,98292.47
2023-04-20T15:38:25.094Z,98294.53
2023-04-20T15:40:55.676Z,98289.03
2023-04-20T15:43:23.612Z,98288.16
2023-04-20T15:45:51.958Z,98281.63
2023-04-20T15:48:21.477Z,98283.00
2023-04-20T15:50:52.877Z,98293.41
2023-04-20T15:53:22.194Z,98287.22
2023-04-20T15:55:50.727Z,98279.47
2023-04-20T15:58:19.007Z,98278.81
2023-04-20T16:00:48.137Z,98272.53
2023-04-20T16:03:16.550Z,98267.94
2023-04-20T16:05:46.671Z,98269.03
2023-04-20T16:08:15.445Z,98273.53
2023-04-20T16:10:43.441Z,98273.91
2023-04-20T16:13:11.887Z,98281.47
2023-04-20T16:15:40.149Z,98281.47
2023-04-20T16:18:17.996Z,98273.97
2023-04-20T16:20:47.374Z,98280.69
2023-04-20T16:23:15.997Z,98276.56
2023-04-20T16:25:45.214Z,98269.69
2023-04-20T16:28:15.681Z,98272.56
2023-04-20T16:30:48.212Z,98289.25
2023-04-20T16:33:20.749Z,98289.03
2023-04-20T16:35:51.166Z,98293.50
2023-04-20T16:38:22.109Z,98294.13
2023-04-20T16:41:02.083Z,98291.34
2023-04-20T16:43:30.133Z,98286.09
2023-04-20T16:46:01.036Z,98295.53
2023-04-20T16:48:29.021Z,98297.56
2023-04-20T16:50:59.352Z,98287.75
2023-04-20T16:53:28.525Z,98294.44
2023-04-20T16:55:56.821Z,98293.16
2023-04-20T16:58:25.054Z,98303.97
2023-04-20T17:00:53.598Z,98305.28
2023-04-20T17:03:23.544Z,98315.41
2023-04-20T17:05:52.720Z,98317.34
2023-04-20T17:08:23.286Z,98320.38
2023-04-20T17:10:52.959Z,98323.75
2023-04-20T17:13:22.201Z,98329.16
2023-04-20T17:15:50.251Z,98336.53
2023-04-20T17:18:20.062Z,98326.81
2023-04-20T17:20:49.049Z,98327.53
2023-04-20T17:23:18.465Z,98323.03
2023-04-20T17:25:50.555Z,98316.19
2023-04-20T17:28:20.258Z,98307.63
2023-04-20T17:30:48.859Z,98307.78
2023-04-20T17:33:17.721Z,98313.66
2023-04-20T17:35:49.098Z,98314.31
2023-04-20T17:38:17.305Z,98320.44
2023-04-20T17:40:46.152Z,98329.78
2023-04-20T17:43:16.689Z,98322.72
2023-04-20T17:45:48.307Z,98324.22
2023-04-20T17:48:17.413Z,98323.81
2023-04-20T17:50:49.294Z,98326.28
2023-04-20T17:53:18.409Z,98322.03
2023-04-20T17:55:46.393Z,98323.00
2023-04-20T17:58:14.462Z,98315.22
2023-04-20T18:00:43.974Z,98309.81
2023-04-20T18:03:14.850Z,98321.53
2023-04-20T18:05:44.551Z,98328.34
2023-04-20T18:08:13.365Z,98329.84
2023-04-20T18:10:41.278Z,98319.81
2023-04-20T18:13:10.420Z,98309.97
2023-04-20T18:19:52.717Z,98317.97
2023-04-20T18:22:20.961Z,98317.72
2023-04-20T18:24:48.925Z,98332.91
2023-04-20T18:27:17.158Z,98332.06
2023-04-20T18:29:45.209Z,98341.22
2023-04-20T18:32:16.311Z,98338.88
2023-04-20T18:34:44.575Z,98342.94
2023-04-20T18:37:14.418Z,98329.13
2023-04-20T18:39:42.792Z,98319.28
2023-04-20T18:42:11.095Z,98312.44
2023-04-20T18:44:40.796Z,98316.47
2023-04-20T18:47:09.293Z,98334.28
2023-04-20T18:49:37.284Z,98330.94
2023-04-20T18:52:05.820Z,98340.47
2023-04-20T18:54:38.629Z,98352.56
2023-04-20T18:57:07.986Z,98359.97
2023-04-20T18:59:36.201Z,98360.63
2023-04-20T19:02:04.299Z,98352.69
2023-04-20T19:04:35.478Z,98347.88
2023-04-20T19:07:03.508Z,98351.53
2023-04-20T19:09:31.577Z,98349.91
2023-04-20T19:12:01.453Z,98367.81
2023-04-20T19:14:29.373Z,98368.47
2023-04-20T19:16:57.728Z,98369.94
2023-04-20T19:19:28.518Z,98367.72
2023-04-20T19:21:57.799Z,98367.16
2023-04-20T19:24:26.185Z,98369.28
2023-04-20T19:26:54.251Z,98369.31
2023-04-20T19:29:23.734Z,98348.22
2023-04-20T19:32:03.396Z,98355.28
2023-04-20T19:34:31.364Z,98388.34
2023-04-20T19:36:59.810Z,98394.31
2023-04-20T19:39:29.518Z,98383.13
2023-04-20T19:41:57.796Z,98391.00
2023-04-20T19:44:28.130Z,98395.59
2023-04-20T19:46:56.205Z,98392.59
2023-04-20T19:49:24.147Z,98395.16
2023-04-20T19:51:52.171Z,98389.47
2023-04-20T19:54:20.119Z,98374.34
2023-04-20T19:56:48.214Z,98393.97
2023-04-20T19:59:16.527Z,98390.13
2023-04-20T20:01:47.145Z,98381.56
2023-04-20T20:04:20.492Z,98376.28
2023-04-20T20:06:50.660Z,98369.41
2023-04-20T20:09:23.188Z,98364.06
2023-04-20T20:11:54.885Z,98384.84
2023-04-20T20:14:23.310Z,98395.03
2023-04-20T20:16:53.147Z,98382.06
2023-04-20T20:19:21.848Z,98391.53
2023-04-20T20:21:50.722Z,98386.22
2023-04-20T20:24:19.356Z,98392.00
2023-04-20T20:26:48.112Z,98385.31
2023-04-20T20:29:16.229Z,98376.22
2023-04-20T20:31:44.817Z,98379.75
2023-04-20T20:34:14.538Z,98377.22
2023-04-20T20:36:44.719Z,98373.78
2023-04-20T20:39:13.783Z,98368.28
2023-04-20T20:41:42.853Z,98375.06
2023-04-20T20:44:11.301Z,98378.97
2023-04-20T20:46:40.549Z,98377.50
2023-04-20T20:49:09.451Z,98377.91
2023-04-20T20:51:39.013Z,98380.41
2023-04-20T20:54:07.093Z,98369.25
2023-04-20T20:56:35.567Z,98370.81
2023-04-20T20:59:06.287Z,98370.38
2023-04-20T21:01:34.336Z,98366.97
2023-04-20T21:04:03.876Z,98365.88
2023-04-20T21:06:33.236Z,98365.56
2023-04-20T21:09:02.832Z,98373.91
2023-04-20T21:11:30.905Z,98366.38
2023-04-20T21:14:01.637Z,98363.78
2023-04-20T21:16:30.192Z,98360.91
2023-04-20T21:18:59.636Z,98360.56
2023-04-20T21:21:27.705Z,98363.06
2023-04-20T21:23:56.158Z,98353.34
2023-04-20T21:26:25.486Z,98359.69
2023-04-20T21:28:53.424Z,98361.41
2023-04-20T21:31:21.326Z,98352.50
2023-04-20T21:33:49.239Z,98358.97
2023-04-20T21:36:17.231Z,98356.28
2023-04-20T21:38:45.498Z,98353.72
2023-04-20T21:41:13.436Z,98355.47
2023-04-20T21:43:43.643Z,98354.00
2023-04-20T21:46:15.298Z,98356.28
2023-04-20T21:48:44.118Z,98354.78
2023-04-20T21:51:19.386Z,98356.28
2023-04-20T21:53:47.552Z,98357.13
2023-04-20T21:56:16.286Z,98351.78
2023-04-20T21:58:45.695Z,98357.53
2023-04-20T22:01:13.597Z,98351.53
2023-04-20T22:03:41.846Z,98359.66
2023-04-20T22:06:12.777Z,98355.00
2023-04-20T22:08:41.262Z,98353.38
2023-04-20T22:11:09.219Z,98347.59
2023-04-20T22:13:38.003Z,98352.50
2023-04-20T22:16:08.229Z,98353.72
2023-04-20T22:18:36.407Z,98350.97
2023-04-20T22:21:04.699Z,98355.03
2023-04-20T22:23:32.861Z,98352.75
2023-04-20T22:26:01.057Z,98352.75
2023-04-20T22:28:29.017Z,98354.13
2023-04-20T22:30:57.269Z,98354.00
2023-04-20T22:33:26.714Z,98368.31
2023-04-20T22:35:54.969Z,98365.38
2023-04-20T22:38:22.843Z,98373.88
2023-04-20T22:40:51.324Z,98367.03
2023-04-20T22:43:20.392Z,98373.34
2023-04-20T22:45:48.914Z,98366.72
2023-04-20T22:48:17.555Z,98374.63
2023-04-20T22:50:47.113Z,98383.63
2023-04-20T22:53:15.466Z,98383.00
2023-04-20T22:55:43.578Z,98387.19
2023-04-20T22:58:11.715Z,98385.34
2023-04-20T23:00:39.717Z,98394.72
2023-04-20T23:03:08.008Z,98392.09
2023-04-20T23:05:36.882Z,98394.69
2023-04-20T23:08:06.742Z,98397.84
2023-04-20T23:10:34.881Z,98400.66
2023-04-20T23:13:05.050Z,98400.84
2023-04-20T23:15:33.075Z,98401.31
2023-04-20T23:18:01.230Z,98388.38
2023-04-20T23:20:31.515Z,98384.13
2023-04-20T23:22:59.599Z,98383.28
2023-04-20T23:25:29.083Z,98384.22
2023-04-20T23:27:57.018Z,98384.75
2023-04-20T23:30:25.028Z,98388.41
2023-04-20T23:32:53.396Z,98379.72
2023-04-20T23:35:21.438Z,98383.94
2023-04-20T23:37:49.715Z,98382.09
2023-04-20T23:40:18.125Z,98382.56
2023-04-20T23:42:47.971Z,98378.94
2023-04-20T23:45:16.177Z,98378.94
2023-04-20T23:47:44.616Z,98378.09
2023-04-20T23:50:12.858Z,98374.25
2023-04-20T23:52:41.447Z,98372.22
2023-04-20T23:55:10.815Z,98376.34
2023-04-20T23:57:38.704Z,98361.09
